sensor_id;sensor_type;location;lat;lon;timestamp;P1;durP1;ratioP1;P2;durP2;ratioP2
1400;SDS011;46518;48.842;8.926;2023-05-02T00:00:40;6.97;;;6.38;;
1400;SDS011;46518;48.842;8.926;2023-05-02T00:03:11;8.60;;;7.80;;
1400;SDS011;46518;48.842;8.926;2023-05-02T00:05:41;5.82;;;5.30;;
1400;SDS011;46518;48.842;8.926;2023-05-02T00:08:10;6.60;;;6.05;;
1400;SDS011;46518;48.842;8.926;2023-05-02T00:10:38;8.02;;;7.22;;
1400;SDS011;46518;48.842;8.926;2023-05-02T00:13:06;7.47;;;6.88;;
1400;SDS011;46518;48.842;8.926;2023-05-02T00:15:34;7.65;;;6.95;;
1400;SDS011;46518;48.842;8.926;2023-05-02T00:18:02;8.52;;;7.80;;
1400;SDS011;46518;48.842;8.926;2023-05-02T00:20:31;9.35;;;8.02;;
1400;SDS011;46518;48.842;8.926;2023-05-02T00:23:00;7.60;;;6.85;;
1400;SDS011;46518;48.842;8.926;2023-05-02T00:25:29;7.60;;;6.85;;
1400;SDS011;46518;48.842;8.926;2023-05-02T00:27:57;9.10;;;8.20;;
1400;SDS011;46518;48.842;8.926;2023-05-02T00:30:25;8.02;;;7.22;;
1400;SDS011;46518;48.842;8.926;2023-05-02T00:32:53;8.50;;;7.70;;
1400;SDS011;46518;48.842;8.926;2023-05-02T00:35:22;10.00;;;9.00;;
1400;SDS011;46518;48.842;8.926;2023-05-02T00:37:50;11.77;;;9.30;;
1400;SDS011;46518;48.842;8.926;2023-05-02T00:40:20;9.35;;;8.60;;
1400;SDS011;46518;48.842;8.926;2023-05-02T00:42:48;9.68;;;8.85;;
1400;SDS011;46518;48.842;8.926;2023-05-02T00:45:17;10.00;;;9.18;;
1400;SDS011;46518;48.842;8.926;2023-05-02T00:47:45;9.45;;;8.05;;
1400;SDS011;46518;48.842;8.926;2023-05-02T00:50:13;9.65;;;7.95;;
1400;SDS011;46518;48.842;8.926;2023-05-02T00:52:42;10.75;;;9.68;;
1400;SDS011;46518;48.842;8.926;2023-05-02T00:55:10;10.60;;;9.40;;
1400;SDS011;46518;48.842;8.926;2023-05-02T00:57:40;10.25;;;9.25;;
1400;SDS011;46518;48.842;8.926;2023-05-02T01:00:08;11.50;;;10.32;;
1400;SDS011;46518;48.842;8.926;2023-05-02T01:02:41;10.55;;;9.45;;
1400;SDS011;46518;48.842;8.926;2023-05-02T01:05:19;11.20;;;10.20;;
1400;SDS011;46518;48.842;8.926;2023-05-02T01:07:53;11.52;;;10.40;;
1400;SDS011;46518;48.842;8.926;2023-05-02T01:10:34;10.45;;;9.40;;
1400;SDS011;46518;48.842;8.926;2023-05-02T01:13:13;11.13;;;9.50;;
1400;SDS011;46518;48.842;8.926;2023-05-02T01:15:47;11.73;;;10.63;;
1400;SDS011;46518;48.842;8.926;2023-05-02T01:18:18;11.82;;;10.63;;
1400;SDS011;46518;48.842;8.926;2023-05-02T01:20:51;11.68;;;9.80;;
1400;SDS011;46518;48.842;8.926;2023-05-02T01:23:25;13.75;;;11.23;;
1400;SDS011;46518;48.842;8.926;2023-05-02T01:26:02;10.43;;;9.43;;
1400;SDS011;46518;48.842;8.926;2023-05-02T01:28:53;10.63;;;9.52;;
1400;SDS011;46518;48.842;8.926;2023-05-02T01:31:25;11.25;;;9.02;;
1400;SDS011;46518;48.842;8.926;2023-05-02T01:33:55;11.55;;;9.80;;
1400;SDS011;46518;48.842;8.926;2023-05-02T01:36:27;11.02;;;9.93;;
1400;SDS011;46518;48.842;8.926;2023-05-02T01:38:58;9.68;;;8.88;;
1400;SDS011;46518;48.842;8.926;2023-05-02T01:41:29;12.07;;;10.20;;
1400;SDS011;46518;48.842;8.926;2023-05-02T01:44:01;11.07;;;9.98;;
1400;SDS011;46518;48.842;8.926;2023-05-02T01:46:30;11.38;;;10.25;;
1400;SDS011;46518;48.842;8.926;2023-05-02T01:49:00;11.38;;;10.23;;
1400;SDS011;46518;48.842;8.926;2023-05-02T01:51:32;12.30;;;11.05;;
1400;SDS011;46518;48.842;8.926;2023-05-02T01:54:03;9.52;;;8.60;;
1400;SDS011;46518;48.842;8.926;2023-05-02T01:56:34;9.77;;;8.80;;
1400;SDS011;46518;48.842;8.926;2023-05-02T01:59:07;10.80;;;9.80;;
1400;SDS011;46518;48.842;8.926;2023-05-02T02:01:38;11.30;;;9.38;;
1400;SDS011;46518;48.842;8.926;2023-05-02T02:04:10;10.32;;;9.32;;
1400;SDS011;46518;48.842;8.926;2023-05-02T02:06:41;11.10;;;9.98;;
1400;SDS011;46518;48.842;8.926;2023-05-02T02:09:15;9.90;;;8.95;;
1400;SDS011;46518;48.842;8.926;2023-05-02T02:11:45;10.20;;;8.98;;
1400;SDS011;46518;48.842;8.926;2023-05-02T02:14:19;11.07;;;9.98;;
1400;SDS011;46518;48.842;8.926;2023-05-02T02:16:52;10.80;;;9.70;;
1400;SDS011;46518;48.842;8.926;2023-05-02T02:19:23;11.73;;;10.52;;
1400;SDS011;46518;48.842;8.926;2023-05-02T02:21:51;12.00;;;10.40;;
1400;SDS011;46518;48.842;8.926;2023-05-02T02:24:22;10.05;;;9.05;;
1400;SDS011;46518;48.842;8.926;2023-05-02T02:26:53;9.07;;;8.27;;
1400;SDS011;46518;48.842;8.926;2023-05-02T02:29:22;10.60;;;9.18;;
1400;SDS011;46518;48.842;8.926;2023-05-02T02:31:51;10.60;;;9.60;;
1400;SDS011;46518;48.842;8.926;2023-05-02T02:34:19;9.73;;;8.75;;
1400;SDS011;46518;48.842;8.926;2023-05-02T02:36:49;10.05;;;8.95;;
1400;SDS011;46518;48.842;8.926;2023-05-02T02:39:25;10.20;;;8.98;;
1400;SDS011;46518;48.842;8.926;2023-05-02T02:42:04;11.02;;;8.30;;
1400;SDS011;46518;48.842;8.926;2023-05-02T02:44:42;11.15;;;8.57;;
1400;SDS011;46518;48.842;8.926;2023-05-02T02:47:22;10.98;;;9.88;;
1400;SDS011;46518;48.842;8.926;2023-05-02T02:50:00;8.98;;;8.07;;
1400;SDS011;46518;48.842;8.926;2023-05-02T02:52:39;8.95;;;8.15;;
1400;SDS011;46518;48.842;8.926;2023-05-02T02:55:25;10.32;;;9.23;;
1400;SDS011;46518;48.842;8.926;2023-05-02T02:58:03;10.82;;;9.02;;
1400;SDS011;46518;48.842;8.926;2023-05-02T03:00:41;10.35;;;8.45;;
1400;SDS011;46518;48.842;8.926;2023-05-02T03:03:10;10.43;;;8.57;;
1400;SDS011;46518;48.842;8.926;2023-05-02T03:05:41;10.95;;;9.35;;
1400;SDS011;46518;48.842;8.926;2023-05-02T03:08:11;9.30;;;8.45;;
1400;SDS011;46518;48.842;8.926;2023-05-02T03:10:39;10.00;;;9.00;;
1400;SDS011;46518;48.842;8.926;2023-05-02T03:13:08;8.20;;;7.40;;
1400;SDS011;46518;48.842;8.926;2023-05-02T03:15:55;9.90;;;8.93;;
1400;SDS011;46518;48.842;8.926;2023-05-02T03:18:39;9.40;;;8.07;;
1400;SDS011;46518;48.842;8.926;2023-05-02T03:21:08;8.88;;;8.05;;
1400;SDS011;46518;48.842;8.926;2023-05-02T03:23:36;9.80;;;8.50;;
1400;SDS011;46518;48.842;8.926;2023-05-02T03:26:05;8.27;;;7.53;;
1400;SDS011;46518;48.842;8.926;2023-05-02T03:28:34;9.30;;;8.38;;
1400;SDS011;46518;48.842;8.926;2023-05-02T03:31:05;9.20;;;8.25;;
1400;SDS011;46518;48.842;8.926;2023-05-02T03:33:37;9.55;;;8.63;;
1400;SDS011;46518;48.842;8.926;2023-05-02T03:36:05;9.77;;;8.88;;
1400;SDS011;46518;48.842;8.926;2023-05-02T03:38:34;10.15;;;9.18;;
1400;SDS011;46518;48.842;8.926;2023-05-02T03:41:05;10.10;;;8.85;;
1400;SDS011;46518;48.842;8.926;2023-05-02T03:43:34;9.57;;;8.38;;
1400;SDS011;46518;48.842;8.926;2023-05-02T03:46:05;10.07;;;7.78;;
1400;SDS011;46518;48.842;8.926;2023-05-02T03:48:38;9.32;;;8.38;;
1400;SDS011;46518;48.842;8.926;2023-05-02T03:51:06;12.98;;;10.93;;
1400;SDS011;46518;48.842;8.926;2023-05-02T03:53:41;9.80;;;8.80;;
1400;SDS011;46518;48.842;8.926;2023-05-02T03:56:09;10.68;;;9.63;;
1400;SDS011;46518;48.842;8.926;2023-05-02T03:58:46;9.45;;;8.45;;
1400;SDS011;46518;48.842;8.926;2023-05-02T04:01:20;8.30;;;7.53;;
1400;SDS011;46518;48.842;8.926;2023-05-02T04:03:50;10.13;;;9.18;;
1400;SDS011;46518;48.842;8.926;2023-05-02T04:06:22;11.27;;;10.18;;
1400;SDS011;46518;48.842;8.926;2023-05-02T04:08:55;10.90;;;9.85;;
1400;SDS011;46518;48.842;8.926;2023-05-02T04:11:31;8.63;;;7.72;;
1400;SDS011;46518;48.842;8.926;2023-05-02T04:14:01;10.18;;;9.18;;
1400;SDS011;46518;48.842;8.926;2023-05-02T04:16:31;13.13;;;9.85;;
1400;SDS011;46518;48.842;8.926;2023-05-02T04:19:00;10.32;;;9.32;;
1400;SDS011;46518;48.842;8.926;2023-05-02T04:21:28;10.10;;;9.20;;
1400;SDS011;46518;48.842;8.926;2023-05-02T04:23:57;10.63;;;9.25;;
1400;SDS011;46518;48.842;8.926;2023-05-02T04:26:29;10.50;;;9.50;;
1400;SDS011;46518;48.842;8.926;2023-05-02T04:29:03;9.95;;;8.65;;
1400;SDS011;46518;48.842;8.926;2023-05-02T04:31:33;9.32;;;7.82;;
1400;SDS011;46518;48.842;8.926;2023-05-02T04:34:02;11.32;;;10.18;;
1400;SDS011;46518;48.842;8.926;2023-05-02T04:36:36;10.45;;;9.27;;
1400;SDS011;46518;48.842;8.926;2023-05-02T04:39:05;11.50;;;10.15;;
1400;SDS011;46518;48.842;8.926;2023-05-02T04:41:36;9.60;;;8.75;;
1400;SDS011;46518;48.842;8.926;2023-05-02T04:44:05;9.55;;;8.65;;
1400;SDS011;46518;48.842;8.926;2023-05-02T04:46:36;11.52;;;10.13;;
1400;SDS011;46518;48.842;8.926;2023-05-02T04:49:05;11.82;;;10.73;;
1400;SDS011;46518;48.842;8.926;2023-05-02T04:51:33;13.02;;;11.82;;
1400;SDS011;46518;48.842;8.926;2023-05-02T04:54:01;13.05;;;11.75;;
1400;SDS011;46518;48.842;8.926;2023-05-02T04:56:30;13.07;;;11.43;;
1400;SDS011;46518;48.842;8.926;2023-05-02T04:58:58;10.30;;;9.05;;
1400;SDS011;46518;48.842;8.926;2023-05-02T05:01:27;10.85;;;9.75;;
1400;SDS011;46518;48.842;8.926;2023-05-02T05:03:57;10.55;;;9.45;;
1400;SDS011;46518;48.842;8.926;2023-05-02T05:06:26;11.40;;;10.30;;
1400;SDS011;46518;48.842;8.926;2023-05-02T05:08:55;11.02;;;9.93;;
1400;SDS011;46518;48.842;8.926;2023-05-02T05:11:24;11.07;;;9.95;;
1400;SDS011;46518;48.842;8.926;2023-05-02T05:17:34;12.23;;;10.85;;
1400;SDS011;46518;48.842;8.926;2023-05-02T05:20:05;10.90;;;9.52;;
1400;SDS011;46518;48.842;8.926;2023-05-02T05:22:37;11.25;;;10.15;;
1400;SDS011;46518;48.842;8.926;2023-05-02T05:25:08;12.20;;;10.93;;
1400;SDS011;46518;48.842;8.926;2023-05-02T05:27:37;12.85;;;11.65;;
1400;SDS011;46518;48.842;8.926;2023-05-02T05:30:07;12.80;;;11.50;;
1400;SDS011;46518;48.842;8.926;2023-05-02T05:32:36;14.30;;;12.20;;
1400;SDS011;46518;48.842;8.926;2023-05-02T05:35:06;14.48;;;12.60;;
1400;SDS011;46518;48.842;8.926;2023-05-02T05:37:36;13.60;;;11.10;;
1400;SDS011;46518;48.842;8.926;2023-05-02T05:40:07;13.45;;;12.10;;
1400;SDS011;46518;48.842;8.926;2023-05-02T05:42:39;16.77;;;12.38;;
1400;SDS011;46518;48.842;8.926;2023-05-02T05:45:13;15.10;;;12.20;;
1400;SDS011;46518;48.842;8.926;2023-05-02T05:47:43;13.23;;;11.82;;
1400;SDS011;46518;48.842;8.926;2023-05-02T05:50:13;13.27;;;11.82;;
1400;SDS011;46518;48.842;8.926;2023-05-02T05:52:42;14.68;;;13.07;;
1400;SDS011;46518;48.842;8.926;2023-05-02T05:55:10;15.45;;;12.73;;
1400;SDS011;46518;48.842;8.926;2023-05-02T05:57:39;15.93;;;12.82;;
1400;SDS011;46518;48.842;8.926;2023-05-02T06:00:09;14.52;;;13.07;;
1400;SDS011;46518;48.842;8.926;2023-05-02T06:02:41;19.05;;;13.75;;
1400;SDS011;46518;48.842;8.926;2023-05-02T06:05:18;17.42;;;14.20;;
1400;SDS011;46518;48.842;8.926;2023-05-02T06:07:46;18.65;;;15.52;;
1400;SDS011;46518;48.842;8.926;2023-05-02T06:10:14;19.20;;;15.15;;
1400;SDS011;46518;48.842;8.926;2023-05-02T06:12:43;17.65;;;13.98;;
1400;SDS011;46518;48.842;8.926;2023-05-02T06:15:15;19.88;;;15.63;;
1400;SDS011;46518;48.842;8.926;2023-05-02T06:17:44;15.95;;;14.02;;
1400;SDS011;46518;48.842;8.926;2023-05-02T06:20:13;20.13;;;16.52;;
1400;SDS011;46518;48.842;8.926;2023-05-02T06:22:45;19.13;;;16.95;;
1400;SDS011;46518;48.842;8.926;2023-05-02T06:25:13;25.05;;;18.67;;
1400;SDS011;46518;48.842;8.926;2023-05-02T06:27:42;24.85;;;17.63;;
1400;SDS011;46518;48.842;8.926;2023-05-02T06:30:10;21.10;;;18.00;;
1400;SDS011;46518;48.842;8.926;2023-05-02T06:32:39;26.67;;;21.23;;
1400;SDS011;46518;48.842;8.926;2023-05-02T06:35:09;22.45;;;19.70;;
1400;SDS011;46518;48.842;8.926;2023-05-02T06:37:38;26.63;;;19.33;;
1400;SDS011;46518;48.842;8.926;2023-05-02T06:40:08;25.33;;;20.10;;
1400;SDS011;46518;48.842;8.926;2023-05-02T06:42:37;24.67;;;21.25;;
1400;SDS011;46518;48.842;8.926;2023-05-02T06:45:05;30.33;;;22.40;;
1400;SDS011;46518;48.842;8.926;2023-05-02T06:47:34;25.15;;;19.98;;
1400;SDS011;46518;48.842;8.926;2023-05-02T06:50:02;27.20;;;21.90;;
1400;SDS011;46518;48.842;8.926;2023-05-02T06:52:30;30.45;;;21.70;;
1400;SDS011;46518;48.842;8.926;2023-05-02T06:54:59;33.17;;;24.77;;
1400;SDS011;46518;48.842;8.926;2023-05-02T06:57:28;27.33;;;21.23;;
1400;SDS011;46518;48.842;8.926;2023-05-02T06:59:57;24.90;;;21.67;;
1400;SDS011;46518;48.842;8.926;2023-05-02T07:02:26;29.60;;;23.48;;
1400;SDS011;46518;48.842;8.926;2023-05-02T07:04:54;29.65;;;22.33;;
1400;SDS011;46518;48.842;8.926;2023-05-02T07:07:22;31.08;;;22.75;;
1400;SDS011;46518;48.842;8.926;2023-05-02T07:09:50;29.92;;;22.50;;
1400;SDS011;46518;48.842;8.926;2023-05-02T07:12:18;32.70;;;25.30;;
1400;SDS011;46518;48.842;8.926;2023-05-02T07:14:48;36.35;;;27.80;;
1400;SDS011;46518;48.842;8.926;2023-05-02T07:17:16;38.65;;;27.77;;
1400;SDS011;46518;48.842;8.926;2023-05-02T07:19:45;40.90;;;28.85;;
1400;SDS011;46518;48.842;8.926;2023-05-02T07:22:13;34.97;;;26.15;;
1400;SDS011;46518;48.842;8.926;2023-05-02T07:24:42;36.30;;;26.98;;
1400;SDS011;46518;48.842;8.926;2023-05-02T07:27:10;31.73;;;26.08;;
1400;SDS011;46518;48.842;8.926;2023-05-02T07:29:38;40.30;;;27.88;;
1400;SDS011;46518;48.842;8.926;2023-05-02T07:32:09;32.78;;;26.75;;
1400;SDS011;46518;48.842;8.926;2023-05-02T07:34:37;35.00;;;27.63;;
1400;SDS011;46518;48.842;8.926;2023-05-02T07:37:05;33.63;;;26.73;;
1400;SDS011;46518;48.842;8.926;2023-05-02T07:39:33;39.17;;;29.02;;
1400;SDS011;46518;48.842;8.926;2023-05-02T07:42:02;42.08;;;30.30;;
1400;SDS011;46518;48.842;8.926;2023-05-02T07:44:30;39.60;;;28.30;;
1400;SDS011;46518;48.842;8.926;2023-05-02T07:47:00;42.30;;;30.75;;
1400;SDS011;46518;48.842;8.926;2023-05-02T07:49:30;39.22;;;31.13;;
1400;SDS011;46518;48.842;8.926;2023-05-02T07:51:58;44.80;;;30.42;;
1400;SDS011;46518;48.842;8.926;2023-05-02T07:54:25;37.67;;;29.02;;
1400;SDS011;46518;48.842;8.926;2023-05-02T07:56:53;45.92;;;34.45;;
1400;SDS011;46518;48.842;8.926;2023-05-02T07:59:23;42.72;;;31.63;;
1400;SDS011;46518;48.842;8.926;2023-05-02T08:01:51;38.85;;;31.10;;
1400;SDS011;46518;48.842;8.926;2023-05-02T08:04:20;42.90;;;32.65;;
1400;SDS011;46518;48.842;8.926;2023-05-02T08:06:49;52.00;;;32.92;;
1400;SDS011;46518;48.842;8.926;2023-05-02T08:09:18;43.13;;;31.88;;
1400;SDS011;46518;48.842;8.926;2023-05-02T08:11:46;42.00;;;31.42;;
1400;SDS011;46518;48.842;8.926;2023-05-02T08:14:14;45.97;;;35.20;;
1400;SDS011;46518;48.842;8.926;2023-05-02T08:16:43;43.28;;;30.50;;
1400;SDS011;46518;48.842;8.926;2023-05-02T08:19:12;40.35;;;31.02;;
1400;SDS011;46518;48.842;8.926;2023-05-02T08:21:42;38.95;;;30.80;;
1400;SDS011;46518;48.842;8.926;2023-05-02T08:24:11;38.63;;;29.92;;
1400;SDS011;46518;48.842;8.926;2023-05-02T08:26:39;40.15;;;30.13;;
1400;SDS011;46518;48.842;8.926;2023-05-02T08:29:08;39.65;;;30.55;;
1400;SDS011;46518;48.842;8.926;2023-05-02T08:31:37;39.08;;;29.73;;
1400;SDS011;46518;48.842;8.926;2023-05-02T08:34:05;37.00;;;29.27;;
1400;SDS011;46518;48.842;8.926;2023-05-02T08:36:34;46.80;;;35.38;;
1400;SDS011;46518;48.842;8.926;2023-05-02T08:39:02;48.60;;;34.35;;
1400;SDS011;46518;48.842;8.926;2023-05-02T08:41:34;38.67;;;29.90;;
1400;SDS011;46518;48.842;8.926;2023-05-02T08:44:04;47.25;;;35.83;;
1400;SDS011;46518;48.842;8.926;2023-05-02T08:46:34;51.08;;;36.13;;
1400;SDS011;46518;48.842;8.926;2023-05-02T08:49:02;44.40;;;33.33;;
1400;SDS011;46518;48.842;8.926;2023-05-02T08:51:33;43.30;;;31.55;;
1400;SDS011;46518;48.842;8.926;2023-05-02T08:54:05;46.70;;;33.22;;
1400;SDS011;46518;48.842;8.926;2023-05-02T08:56:36;40.28;;;31.52;;
1400;SDS011;46518;48.842;8.926;2023-05-02T08:59:05;40.58;;;32.38;;
1400;SDS011;46518;48.842;8.926;2023-05-02T09:01:34;42.92;;;31.65;;
1400;SDS011;46518;48.842;8.926;2023-05-02T09:04:03;36.83;;;27.85;;
1400;SDS011;46518;48.842;8.926;2023-05-02T09:06:31;37.70;;;27.42;;
1400;SDS011;46518;48.842;8.926;2023-05-02T09:09:00;38.53;;;28.58;;
1400;SDS011;46518;48.842;8.926;2023-05-02T09:11:29;33.83;;;26.80;;
1400;SDS011;46518;48.842;8.926;2023-05-02T09:13:58;37.05;;;27.30;;
1400;SDS011;46518;48.842;8.926;2023-05-02T09:16:30;32.25;;;27.63;;
1400;SDS011;46518;48.842;8.926;2023-05-02T09:19:06;38.50;;;29.25;;
1400;SDS011;46518;48.842;8.926;2023-05-02T09:21:34;32.00;;;26.48;;
1400;SDS011;46518;48.842;8.926;2023-05-02T09:24:13;36.75;;;28.10;;
1400;SDS011;46518;48.842;8.926;2023-05-02T09:26:44;33.13;;;25.75;;
1400;SDS011;46518;48.842;8.926;2023-05-02T09:29:25;33.42;;;25.10;;
1400;SDS011;46518;48.842;8.926;2023-05-02T09:31:56;25.77;;;21.75;;
1400;SDS011;46518;48.842;8.926;2023-05-02T09:34:24;27.20;;;20.77;;
1400;SDS011;46518;48.842;8.926;2023-05-02T09:36:52;26.58;;;21.75;;
1400;SDS011;46518;48.842;8.926;2023-05-02T09:39:20;29.40;;;23.20;;
1400;SDS011;46518;48.842;8.926;2023-05-02T09:41:51;26.42;;;19.48;;
1400;SDS011;46518;48.842;8.926;2023-05-02T09:44:20;24.85;;;19.20;;
1400;SDS011;46518;48.842;8.926;2023-05-02T09:46:51;27.42;;;20.30;;
1400;SDS011;46518;48.842;8.926;2023-05-02T09:49:37;28.63;;;22.83;;
1400;SDS011;46518;48.842;8.926;2023-05-02T09:52:09;30.58;;;24.38;;
1400;SDS011;46518;48.842;8.926;2023-05-02T09:54:38;31.85;;;25.08;;
1400;SDS011;46518;48.842;8.926;2023-05-02T09:57:06;30.38;;;24.77;;
1400;SDS011;46518;48.842;8.926;2023-05-02T09:59:36;35.38;;;26.83;;
1400;SDS011;46518;48.842;8.926;2023-05-02T10:02:06;33.03;;;26.10;;
1400;SDS011;46518;48.842;8.926;2023-05-02T10:04:37;30.13;;;24.48;;
1400;SDS011;46518;48.842;8.926;2023-05-02T10:07:06;28.27;;;23.95;;
1400;SDS011;46518;48.842;8.926;2023-05-02T10:09:36;27.38;;;21.88;;
1400;SDS011;46518;48.842;8.926;2023-05-02T10:12:10;22.83;;;18.83;;
1400;SDS011;46518;48.842;8.926;2023-05-02T10:14:44;30.95;;;24.15;;
1400;SDS011;46518;48.842;8.926;2023-05-02T10:17:21;26.85;;;23.60;;
1400;SDS011;46518;48.842;8.926;2023-05-02T10:19:55;31.02;;;22.23;;
1400;SDS011;46518;48.842;8.926;2023-05-02T10:22:27;25.45;;;21.17;;
1400;SDS011;46518;48.842;8.926;2023-05-02T10:24:56;27.15;;;20.05;;
1400;SDS011;46518;48.842;8.926;2023-05-02T10:27:28;21.08;;;17.88;;
1400;SDS011;46518;48.842;8.926;2023-05-02T10:29:57;21.65;;;17.40;;
1400;SDS011;46518;48.842;8.926;2023-05-02T10:32:28;29.75;;;21.63;;
1400;SDS011;46518;48.842;8.926;2023-05-02T10:34:56;27.98;;;22.55;;
1400;SDS011;46518;48.842;8.926;2023-05-02T10:37:29;31.45;;;24.02;;
1400;SDS011;46518;48.842;8.926;2023-05-02T10:39:59;35.17;;;27.30;;
1400;SDS011;46518;48.842;8.926;2023-05-02T10:42:28;34.15;;;27.30;;
1400;SDS011;46518;48.842;8.926;2023-05-02T10:44:57;37.13;;;25.10;;
1400;SDS011;46518;48.842;8.926;2023-05-02T10:47:28;36.38;;;27.20;;
1400;SDS011;46518;48.842;8.926;2023-05-02T10:49:58;32.72;;;25.80;;
1400;SDS011;46518;48.842;8.926;2023-05-02T10:52:28;36.03;;;28.50;;
1400;SDS011;46518;48.842;8.926;2023-05-02T10:55:14;34.42;;;28.50;;
1400;SDS011;46518;48.842;8.926;2023-05-02T11:00:45;34.80;;;27.98;;
1400;SDS011;46518;48.842;8.926;2023-05-02T11:03:15;34.85;;;27.85;;
1400;SDS011;46518;48.842;8.926;2023-05-02T11:06:22;34.38;;;26.10;;
1400;SDS011;46518;48.842;8.926;2023-05-02T11:08:51;33.03;;;27.25;;
1400;SDS011;46518;48.842;8.926;2023-05-02T11:11:38;37.88;;;28.02;;
1400;SDS011;46518;48.842;8.926;2023-05-02T11:14:08;40.05;;;29.75;;
1400;SDS011;46518;48.842;8.926;2023-05-02T11:22:56;38.13;;;27.75;;
1400;SDS011;46518;48.842;8.926;2023-05-02T11:25:36;38.35;;;27.75;;
1400;SDS011;46518;48.842;8.926;2023-05-02T11:28:06;35.28;;;26.15;;
1400;SDS011;46518;48.842;8.926;2023-05-02T11:30:54;40.03;;;28.73;;
1400;SDS011;46518;48.842;8.926;2023-05-02T11:33:23;38.50;;;28.75;;
1400;SDS011;46518;48.842;8.926;2023-05-02T11:35:51;38.90;;;30.15;;
1400;SDS011;46518;48.842;8.926;2023-05-02T11:38:21;32.45;;;27.17;;
1400;SDS011;46518;48.842;8.926;2023-05-02T11:40:50;36.15;;;29.35;;
1400;SDS011;46518;48.842;8.926;2023-05-02T11:43:23;37.30;;;26.88;;
1400;SDS011;46518;48.842;8.926;2023-05-02T11:45:56;37.33;;;28.23;;
1400;SDS011;46518;48.842;8.926;2023-05-02T11:48:25;35.30;;;26.50;;
1400;SDS011;46518;48.842;8.926;2023-05-02T11:50:55;38.50;;;29.55;;
1400;SDS011;46518;48.842;8.926;2023-05-02T11:53:29;43.72;;;29.00;;
1400;SDS011;46518;48.842;8.926;2023-05-02T11:55:59;37.45;;;26.63;;
1400;SDS011;46518;48.842;8.926;2023-05-02T11:58:29;34.83;;;26.15;;
1400;SDS011;46518;48.842;8.926;2023-05-02T12:01:09;39.28;;;26.90;;
1400;SDS011;46518;48.842;8.926;2023-05-02T12:03:40;38.47;;;25.42;;
1400;SDS011;46518;48.842;8.926;2023-05-02T12:06:09;38.80;;;28.90;;
1400;SDS011;46518;48.842;8.926;2023-05-02T12:08:41;44.75;;;31.30;;
1400;SDS011;46518;48.842;8.926;2023-05-02T12:11:11;42.70;;;30.25;;
1400;SDS011;46518;48.842;8.926;2023-05-02T12:13:43;46.50;;;32.15;;
1400;SDS011;46518;48.842;8.926;2023-05-02T12:16:13;41.67;;;26.98;;
1400;SDS011;46518;48.842;8.926;2023-05-02T12:18:42;34.30;;;26.23;;
1400;SDS011;46518;48.842;8.926;2023-05-02T12:21:10;37.22;;;27.38;;
1400;SDS011;46518;48.842;8.926;2023-05-02T12:23:40;39.15;;;27.27;;
1400;SDS011;46518;48.842;8.926;2023-05-02T12:26:15;38.17;;;28.23;;
1400;SDS011;46518;48.842;8.926;2023-05-02T12:28:47;36.30;;;25.00;;
1400;SDS011;46518;48.842;8.926;2023-05-02T12:31:16;33.88;;;25.52;;
1400;SDS011;46518;48.842;8.926;2023-05-02T12:33:45;33.90;;;23.35;;
1400;SDS011;46518;48.842;8.926;2023-05-02T12:36:16;36.58;;;26.02;;
1400;SDS011;46518;48.842;8.926;2023-05-02T12:38:49;34.92;;;25.20;;
1400;SDS011;46518;48.842;8.926;2023-05-02T12:41:29;30.75;;;22.05;;
1400;SDS011;46518;48.842;8.926;2023-05-02T12:43:58;25.38;;;21.65;;
1400;SDS011;46518;48.842;8.926;2023-05-02T12:46:26;31.30;;;22.38;;
1400;SDS011;46518;48.842;8.926;2023-05-02T12:49:01;34.88;;;24.65;;
1400;SDS011;46518;48.842;8.926;2023-05-02T12:51:30;28.77;;;22.65;;
1400;SDS011;46518;48.842;8.926;2023-05-02T12:54:01;31.88;;;22.25;;
1400;SDS011;46518;48.842;8.926;2023-05-02T12:56:37;32.72;;;23.25;;
1400;SDS011;46518;48.842;8.926;2023-05-02T12:59:06;33.88;;;21.98;;
1400;SDS011;46518;48.842;8.926;2023-05-02T13:01:34;29.08;;;21.35;;
1400;SDS011;46518;48.842;8.926;2023-05-02T13:04:03;29.90;;;20.67;;
1400;SDS011;46518;48.842;8.926;2023-05-02T13:06:31;28.98;;;21.52;;
1400;SDS011;46518;48.842;8.926;2023-05-02T13:09:04;28.15;;;20.33;;
1400;SDS011;46518;48.842;8.926;2023-05-02T13:11:33;26.90;;;20.58;;
1400;SDS011;46518;48.842;8.926;2023-05-02T13:14:01;31.35;;;21.80;;
1400;SDS011;46518;48.842;8.926;2023-05-02T13:16:31;33.15;;;21.55;;
1400;SDS011;46518;48.842;8.926;2023-05-02T13:19:02;32.50;;;21.92;;
1400;SDS011;46518;48.842;8.926;2023-05-02T13:21:31;34.13;;;22.75;;
1400;SDS011;46518;48.842;8.926;2023-05-02T13:23:59;32.35;;;21.75;;
1400;SDS011;46518;48.842;8.926;2023-05-02T13:26:31;29.02;;;22.27;;
1400;SDS011;46518;48.842;8.926;2023-05-02T13:28:59;23.65;;;18.75;;
1400;SDS011;46518;48.842;8.926;2023-05-02T13:31:27;29.63;;;20.85;;
1400;SDS011;46518;48.842;8.926;2023-05-02T13:33:55;24.38;;;16.95;;
1400;SDS011;46518;48.842;8.926;2023-05-02T13:36:23;20.67;;;16.13;;
1400;SDS011;46518;48.842;8.926;2023-05-02T13:38:52;22.85;;;16.35;;
1400;SDS011;46518;48.842;8.926;2023-05-02T13:41:21;28.15;;;18.30;;
1400;SDS011;46518;48.842;8.926;2023-05-02T13:43:51;20.48;;;15.05;;
1400;SDS011;46518;48.842;8.926;2023-05-02T13:46:20;23.45;;;14.95;;
1400;SDS011;46518;48.842;8.926;2023-05-02T13:48:48;20.80;;;16.17;;
1400;SDS011;46518;48.842;8.926;2023-05-02T13:51:16;20.25;;;15.10;;
1400;SDS011;46518;48.842;8.926;2023-05-02T13:53:45;29.10;;;16.77;;
1400;SDS011;46518;48.842;8.926;2023-05-02T13:56:13;22.35;;;17.30;;
1400;SDS011;46518;48.842;8.926;2023-05-02T13:58:42;19.13;;;14.00;;
1400;SDS011;46518;48.842;8.926;2023-05-02T14:01:14;18.50;;;15.00;;
1400;SDS011;46518;48.842;8.926;2023-05-02T14:03:43;20.33;;;15.38;;
1400;SDS011;46518;48.842;8.926;2023-05-02T14:06:11;23.02;;;16.63;;
1400;SDS011;46518;48.842;8.926;2023-05-02T14:08:40;21.42;;;16.65;;
1400;SDS011;46518;48.842;8.926;2023-05-02T14:11:08;23.15;;;17.67;;
1400;SDS011;46518;48.842;8.926;2023-05-02T14:13:37;24.02;;;18.00;;
1400;SDS011;46518;48.842;8.926;2023-05-02T14:16:05;22.27;;;16.25;;
1400;SDS011;46518;48.842;8.926;2023-05-02T14:18:34;21.13;;;16.20;;
1400;SDS011;46518;48.842;8.926;2023-05-02T14:21:03;16.23;;;13.10;;
1400;SDS011;46518;48.842;8.926;2023-05-02T14:23:32;22.02;;;14.10;;
1400;SDS011;46518;48.842;8.926;2023-05-02T14:26:00;20.00;;;13.23;;
1400;SDS011;46518;48.842;8.926;2023-05-02T14:28:29;17.95;;;13.13;;
1400;SDS011;46518;48.842;8.926;2023-05-02T14:30:58;18.63;;;14.07;;
1400;SDS011;46518;48.842;8.926;2023-05-02T14:33:26;22.85;;;14.25;;
1400;SDS011;46518;48.842;8.926;2023-05-02T14:35:55;15.95;;;12.30;;
1400;SDS011;46518;48.842;8.926;2023-05-02T14:38:24;19.98;;;14.60;;
1400;SDS011;46518;48.842;8.926;2023-05-02T14:40:52;23.02;;;15.48;;
1400;SDS011;46518;48.842;8.926;2023-05-02T14:43:20;22.02;;;15.25;;
1400;SDS011;46518;48.842;8.926;2023-05-02T14:45:49;17.67;;;13.85;;
1400;SDS011;46518;48.842;8.926;2023-05-02T14:48:17;18.40;;;14.07;;
1400;SDS011;46518;48.842;8.926;2023-05-02T14:50:45;21.02;;;13.38;;
1400;SDS011;46518;48.842;8.926;2023-05-02T14:53:15;15.40;;;11.65;;
1400;SDS011;46518;48.842;8.926;2023-05-02T14:55:43;13.68;;;10.30;;
1400;SDS011;46518;48.842;8.926;2023-05-02T14:58:11;11.77;;;10.13;;
1400;SDS011;46518;48.842;8.926;2023-05-02T15:00:46;11.77;;;10.18;;
1400;SDS011;46518;48.842;8.926;2023-05-02T15:03:14;11.07;;;9.68;;
1400;SDS011;46518;48.842;8.926;2023-05-02T15:05:42;11.23;;;8.70;;
1400;SDS011;46518;48.842;8.926;2023-05-02T15:08:11;11.85;;;8.00;;
1400;SDS011;46518;48.842;8.926;2023-05-02T15:10:40;10.60;;;8.73;;
1400;SDS011;46518;48.842;8.926;2023-05-02T15:13:08;13.38;;;7.93;;